Latest Weather Observations for Narrandera Airport

IDN60801

Issued at 8:02 am EDT Saturday 10 December 2016 (issued every 30 minutes, with the page automatically refreshed every 10 minutes)

About weather observations | Map of weather stations | Latest weather observations for NSW | Other Formats
Station Details ID: 074148 Name: NARRANDERA AIRPORT AWS Lat: -34.70 Lon: 146.51 Height: 145.0 m
Data from the previous 72 hours. | See also: Recent months at Narrandera Airport
Date/Time
EDT
Temp
°C
App
Temp
°C
Dew
Point
°C
Rel
Hum
%
Delta-T
°C
Wind Press
QNH
hPa
Press
MSL
hPa
Rain since
9am
mm
Dir  Spd
km/h
Gust
km/h
Spd
kts
Gust
kts
10/08:00am 13.0 9.9 5.4 60 3.6 SW 11 15 6 8 1022.8 1022.2 0.0
10/07:30am 11.6 9.8 5.3 65 2.9 W 4 9 2 5 1022.5 1021.9 0.0
10/07:00am 9.4 8.4 5.6 77 1.7 CALM 0 0 0 0 1021.9 1021.3 0.0
10/06:30am 7.4 6.1 4.0 79 1.5 CALM 0 2 0 1 1021.4 1020.7 0.0
10/06:00am 6.6 4.4 3.4 80 1.4 NNW 4 7 2 4 1021.1 1020.4 0.0
10/05:30am 6.6 5.1 3.0 78 1.5 CALM 0 0 0 0 1020.7 1020.0 0.0
10/05:00am 7.5 6.1 3.4 75 1.7 CALM 0 0 0 0 1020.4 1019.7 0.0
10/04:30am 8.1 6.7 3.8 74 1.9 CALM 0 0 0 0 1020.1 1019.4 0.0
10/04:00am 9.6 6.6 4.2 69 2.4 SW 9 13 5 7 1020.1 1019.4 0.0
10/03:30am 9.3 6.6 3.7 68 2.5 SSW 7 11 4 6 1020.1 1019.4 0.0
10/03:00am 9.6 7.1 3.6 66 2.6 WSW 6 7 3 4 1020.2 1019.5 0.0
10/02:30am 10.4 7.7 3.9 64 2.9 SW 7 11 4 6 1020.1 1019.4 0.0
10/02:00am 10.2 7.4 3.0 61 3.1 S 7 9 4 5 1020.2 1019.5 0.0
10/01:30am 11.0 8.5 3.5 60 3.3 S 6 11 3 6 1020.3 1019.6 0.0
10/01:00am 11.8 8.6 3.3 56 3.8 S 9 11 5 6 1020.5 1019.8 0.0
10/12:30am 13.2 9.7 3.6 52 4.3 SSW 11 15 6 8 1020.7 1020.0 0.0
10/12:00am 14.3 10.5 3.7 49 4.8 SSW 13 19 7 10 1020.4 1019.7 0.0
 
Date/Time
EDT
Temp
°C
App
Temp
°C
Dew
Point
°C
Rel
Hum
%
Delta-T
°C
Wind Press
QNH
hPa
Press
MSL
hPa
Rain since
9am
mm
Dir  Spd
km/h
Gust
km/h
Spd
kts
Gust
kts
09/11:30pm 14.9 10.7 3.7 47 5.2 S 15 19 8 10 1020.2 1019.5 0.0
09/11:00pm 14.2 10.6 3.1 47 5.0 SSW 11 15 6 8 1020.0 1019.3 0.0
09/10:30pm 15.4 11.4 2.9 43 5.7 S 13 17 7 9 1019.7 1019.0 0.0
09/10:00pm 15.4 11.4 2.6 42 5.8 SSW 13 17 7 9 1019.6 1018.9 0.0
09/09:30pm 16.4 12.3 2.4 39 6.3 SSW 13 19 7 10 1019.1 1018.5 0.0
09/09:00pm 16.1 12.0 2.2 39 6.2 SSW 13 15 7 8 1018.9 1018.3 0.0
09/08:30pm 17.4 13.6 1.8 35 7.0 SSW 11 15 6 8 1018.5 1017.9 0.0
09/08:00pm 19.2 14.3 2.1 32 7.9 SW 17 28 9 15 1018.1 1017.5 0.0
09/07:30pm 20.3 15.4 1.7 29 8.6 SSW 17 20 9 11 1017.7 1017.1 0.0
09/07:00pm 20.8 15.2 1.1 27 9.0 SSW 20 33 11 18 1017.3 1016.7 0.0
09/06:30pm 21.1 15.5 0.9 26 9.2 SSW 20 32 11 17 1016.8 1016.2 0.0
09/06:00pm 21.5 15.6 1.7 27 9.2 SW 22 35 12 19 1016.5 1015.9 0.0
09/05:30pm 21.7 15.4 1.4 26 9.4 SW 24 35 13 19 1016.4 1015.8 0.0
09/05:00pm 22.3 16.4 1.9 26 9.6 SW 22 39 12 21 1016.1 1015.5 0.0
09/04:30pm 22.1 15.4 1.7 26 9.5 SW 26 39 14 21 1016.1 1015.5 0.0
09/04:00pm 21.5 15.2 1.7 27 9.2 SW 24 43 13 23 1016.3 1015.7 0.0
09/03:30pm 21.7 15.0 1.4 26 9.4 SW 26 39 14 21 1016.5 1015.9 0.0
09/03:00pm 21.2 15.3 2.0 28 9.0 SW 22 37 12 20 1016.4 1015.8 0.0
09/02:30pm 21.1 14.5 1.9 28 8.9 SW 26 41 14 22 1016.5 1015.9 0.0
09/02:00pm 20.1 14.1 1.0 28 8.7 SW 22 33 12 18 1016.6 1016.0 0.0
09/01:49pm 20.1 12.9 1.0 28 8.7 SW 28 46 15 25 1016.7 1016.1 0.0
09/01:30pm 20.4 14.6 2.3 30 8.5 SW 22 37 12 20 1016.9 1016.3 0.0
09/01:00pm 18.9 11.8 1.4 31 7.9 SW 28 48 15 26 1017.1 1016.5 0.0
09/12:57pm 18.9 11.7 1.0 30 8.1 WSW 28 48 15 26 1017.1 1016.5 0.0
09/12:30pm 19.1 12.8 1.6 31 8.0 SW 24 46 13 25 1017.2 1016.6 0.0
09/12:00pm 18.2 11.5 1.3 32 7.6 SW 26 39 14 21 1017.1 1016.5 0.0
09/11:30am 17.9 11.5 1.0 32 7.5 SW 24 37 13 20 1016.8 1016.2 0.0
09/11:20am 17.6 9.8 1.6 34 7.2 SW 32 54 17 29 1016.9 1016.3 0.0
09/11:00am 17.2 10.8 1.2 34 7.1 SW 24 39 13 21 1016.7 1016.1 0.0
09/10:30am 16.8 10.0 3.1 40 6.3 SW 28 41 15 22 1016.2 1015.6 0.0
09/10:00am 16.0 9.2 3.1 42 5.9 SW 28 44 15 24 1016.2 1015.6 0.0
09/09:30am 15.7 9.5 4.1 46 5.4 SW 26 41 14 22 1016.0 1015.4 0.0
09/09:00am 14.6 9.8 5.4 54 4.4 SW 20 32 11 17 1015.7 1015.1 0.4
09/08:30am 13.7 8.6 6.1 60 3.6 SW 22 35 12 19 1015.3 1014.6 0.4
09/08:00am 12.8 7.8 6.6 66 3.0 WSW 22 30 12 16 1014.8 1014.1 0.4
09/07:30am 12.1 7.9 7.4 73 2.3 WSW 19 33 10 18 1014.2 1013.5 0.4
09/07:00am 11.4 7.5 7.1 75 2.1 WSW 17 26 9 14 1013.6 1012.9 0.4
09/06:30am 10.8 6.9 7.3 79 1.7 WSW 17 24 9 13 1013.1 1012.4 0.4
09/06:00am 10.7 6.4 7.2 79 1.7 WSW 19 28 10 15 1012.6 1011.9 0.4
09/05:30am 11.0 6.8 7.3 78 1.8 WSW 19 28 10 15 1012.0 1011.4 0.4
09/05:00am 11.4 8.0 7.5 77 1.9 WSW 15 26 8 14 1011.5 1010.9 0.4
09/04:30am 11.9 7.7 7.4 74 2.2 WSW 19 26 10 14 1010.9 1010.3 0.4
09/04:00am 12.0 8.1 7.3 73 2.3 WSW 17 26 9 14 1010.4 1009.8 0.4
09/03:30am 12.2 8.3 6.9 70 2.6 WSW 17 24 9 13 1010.0 1009.4 0.4
09/03:00am 12.8 8.2 6.6 66 3.0 WSW 20 33 11 18 1009.8 1009.2 0.4
09/02:30am 13.4 8.9 6.0 61 3.5 WSW 19 28 10 15 1009.6 1009.0 0.4
09/02:00am 14.0 8.5 5.9 58 3.9 WSW 24 39 13 21 1009.5 1008.9 0.4
09/01:30am 14.4 9.6 5.7 56 4.2 WSW 20 33 11 18 1009.3 1008.6 0.4
09/01:00am 14.8 10.2 5.6 54 4.4 WSW 19 32 10 17 1009.1 1008.4 0.4
09/12:30am 15.3 10.7 5.5 52 4.7 WSW 19 30 10 16 1008.9 1008.2 0.4
09/12:00am 15.8 11.5 5.4 50 5.0 WSW 17 30 9 16 1008.8 1008.1 0.4
 
Date/Time
EDT
Temp
°C
App
Temp
°C
Dew
Point
°C
Rel
Hum
%
Delta-T
°C
Wind Press
QNH
hPa
Press
MSL
hPa
Rain since
9am
mm
Dir  Spd
km/h
Gust
km/h
Spd
kts
Gust
kts
08/11:30pm 16.3 11.4 5.0 47 5.4 WSW 20 33 11 18 1008.6 1007.9 0.4
08/11:00pm 16.9 12.6 5.2 46 5.7 WSW 17 26 9 14 1008.3 1007.6 0.4
08/10:30pm 17.4 12.7 5.0 44 6.0 WSW 19 28 10 15 1007.8 1007.1 0.4
08/10:00pm 18.0 13.0 4.6 41 6.5 WSW 20 32 11 17 1007.2 1006.5 0.4
08/09:30pm 18.3 13.8 4.1 39 6.8 WSW 17 28 9 15 1006.8 1006.1 0.4
08/09:00pm 17.4 15.0 8.5 56 4.6 WSW 11 15 6 8 1006.3 1005.6 0.4
08/08:30pm 16.2 14.7 10.7 70 2.9 NW 9 13 5 7 1005.6 1004.9 0.4
08/08:00pm 17.7 16.3 10.8 64 3.7 WNW 9 11 5 6 1004.7 1004.1 0.4
08/07:30pm 19.1 17.3 10.9 59 4.5 W 11 17 6 9 1004.5 1003.9 0.4
08/07:00pm 19.2 17.4 11.0 59 4.5 SW 11 20 6 11 1004.2 1003.6 0.4
08/06:30pm 18.4 15.4 10.8 61 4.1 WSW 17 22 9 12 1004.0 1003.4 0.4
08/06:00pm 17.8 16.5 11.4 66 3.5 SW 9 15 5 8 1003.9 1003.3 0.4
08/05:30pm 16.2 14.0 10.9 71 2.9 WSW 13 20 7 11 1004.0 1003.4 0.4
08/05:00pm 16.0 13.2 9.9 67 3.2 WSW 15 20 8 11 1004.0 1003.4 0.4
08/04:30pm 16.3 12.4 9.5 64 3.6 WSW 20 30 11 16 1003.7 1003.1 0.4
08/04:00pm 16.2 11.0 10.1 67 3.2 SW 28 46 15 25 1003.5 1002.9 0.4
08/03:40pm 15.8 11.0 11.6 76 2.3 WSW 28 46 15 25 1003.7 1003.1 0.4
08/03:30pm 15.9 12.1 12.3 79 2.0 WSW 24 41 13 22 1003.7 1003.1 0.4
08/03:00pm 19.5 16.0 15.4 77 2.4 WSW 28 48 15 26 1002.6 1001.9 0.4
08/02:30pm 24.4 19.1 14.2 53 6.1 W 35 57 19 31 1002.3 1001.6 0.0
08/02:08pm 26.8 21.7 13.2 43 8.0 W 32 52 17 28 1001.6 1000.9 0.0
08/02:00pm 26.7 21.5 13.4 43 7.9 NW 33 48 18 26 1001.4 1000.7 0.0
08/01:54pm 26.1 21.5 13.6 46 7.4 NW 30 48 16 26 1001.3 1000.6 0.0
08/01:30pm 25.7 20.8 14.2 49 6.9 NW 33 48 18 26 1001.4 1000.7 0.0
08/01:18pm 29.7 23.0 9.8 29 11.3 NW 35 54 19 29 1001.0 1000.3 0.0
08/01:00pm 30.5 23.7 9.4 27 12.0 NW 35 50 19 27 1000.9 1000.2 0.0
08/12:30pm 32.2 24.9 10.3 26 12.6 NW 39 57 21 31 1001.2 1000.5 0.0
08/12:02pm 32.3 24.7 10.4 26 12.7 NNW 41 59 22 32 1001.8 1001.1 0.0
08/12:00pm 32.5 24.4 9.9 25 13.0 NNW 43 59 23 32 1001.8 1001.1 0.0
08/11:30am 31.8 24.3 9.3 25 12.8 NNW 39 57 21 31 1002.4 1001.7 0.0
08/11:25am 31.6 24.9 9.8 26 12.4 NNW 35 54 19 29 1002.5 1001.8 0.0
08/11:00am 31.3 25.3 10.1 27 12.2 NNW 32 43 17 23 1003.0 1002.3 0.0
08/10:51am 30.5 24.6 10.5 29 11.5 NNW 32 50 17 27 1003.2 1002.5 0.0
08/10:30am 30.0 23.6 9.5 28 11.6 NNW 33 46 18 25 1003.4 1002.8 0.0
08/10:00am 29.4 23.0 8.5 27 11.6 N 32 43 17 23 1003.8 1003.2 0.0
08/09:30am 27.9 21.0 7.2 27 11.1 N 33 43 18 23 1004.3 1003.7 0.0
08/09:00am 27.4 19.9 6.2 26 11.2 N 35 46 19 25 1004.8 1004.2 0.0
08/08:30am 26.4 19.4 5.9 27 10.7 N 32 46 17 25 1005.0 1004.4 0.0
08/08:22am 26.0 19.7 5.6 27 10.5 N 28 46 15 25 1005.3 1004.6 0.0
08/08:00am 25.8 20.7 5.9 28 10.4 N 22 28 12 15 1005.4 1004.7 0.0
08/07:30am 21.7 21.0 6.8 38 7.7 CALM 0 0 0 0 1005.6 1004.9 0.0
08/07:00am 19.2 17.4 7.9 48 5.9 S 7 9 4 5 1005.6 1004.9 0.0
08/06:30am 16.2 14.4 7.2 55 4.5 SSE 6 9 3 5 1005.7 1005.0 0.0
08/06:00am 15.1 13.0 6.7 57 4.1 ENE 7 9 4 5 1005.7 1005.0 0.0
08/05:30am 14.3 12.4 6.6 60 3.8 E 6 7 3 4 1006.1 1005.4 0.0
08/05:00am 16.0 15.2 6.7 54 4.6 CALM 0 6 0 3 1006.2 1005.5 0.0
08/04:30am 15.7 15.0 7.0 56 4.3 CALM 0 6 0 3 1006.1 1005.4 0.0
08/04:00am 15.3 13.4 6.8 57 4.2 S 6 9 3 5 1006.0 1005.3 0.0
08/03:30am 16.6 14.1 6.7 52 4.9 ENE 9 13 5 7 1006.0 1005.3 0.0
08/03:00am 15.6 13.7 7.4 58 4.1 ENE 7 9 4 5 1006.6 1005.9 0.0
08/02:30am 15.7 13.3 7.0 56 4.3 SE 9 11 5 6 1007.3 1006.6 0.0
08/02:00am 15.6 13.9 7.4 58 4.1 E 6 9 3 5 1007.9 1007.2 0.0
08/01:30am 15.8 14.0 7.8 59 4.0 ENE 7 9 4 5 1008.4 1007.7 0.0
08/01:00am 15.8 15.0 8.1 60 3.9 ESE 2 7 1 4 1009.1 1008.4 0.0
08/12:30am 16.0 15.5 8.0 59 4.1 CALM 0 4 0 2 1009.4 1008.7 0.0
08/12:00am 16.9 16.3 7.5 54 4.8 CALM 0 0 0 0 1009.8 1009.2 0.0
 
Date/Time
EDT
Temp
°C
App
Temp
°C
Dew
Point
°C
Rel
Hum
%
Delta-T
°C
Wind Press
QNH
hPa
Press
MSL
hPa
Rain since
9am
mm
Dir  Spd
km/h
Gust
km/h
Spd
kts
Gust
kts
07/11:30pm 17.4 16.9 8.0 54 4.8 CALM 0 0 0 0 1009.8 1009.2 0.0
07/11:00pm 17.0 16.3 7.1 52 5.0 CALM 0 0 0 0 1009.9 1009.3 0.0
07/10:30pm 17.7 17.0 6.9 49 5.4 CALM 0 0 0 0 1010.0 1009.4 0.0
07/10:00pm 18.2 17.4 6.7 47 5.8 CALM 0 0 0 0 1010.1 1009.5 0.0
07/09:30pm 19.5 18.7 6.3 42 6.6 CALM 0 0 0 0 1010.3 1009.7 0.0
07/09:00pm 21.6 21.0 7.4 40 7.4 CALM 0 0 0 0 1010.4 1009.8 0.0
07/08:30pm 24.0 22.8 4.4 28 9.8 CALM 0 0 0 0 1010.6 1010.0 0.0
07/08:00pm 26.4 23.3 3.6 23 11.4 NNW 9 11 5 6 1010.6 1010.0 0.0
07/07:30pm 28.5 25.4 3.4 20 12.7 NW 9 11 5 6 1010.7 1010.1 0.0
07/07:00pm 29.7 26.3 2.1 17 13.7 NW 9 15 5 8 1010.6 1010.0 0.0
07/06:30pm 30.2 25.6 1.6 16 14.1 NW 15 30 8 16 1010.7 1010.1 0.0
07/06:00pm 30.9 27.4 1.3 15 14.6 W 9 19 5 10 1010.9 1010.3 0.0
07/05:30pm 30.3 26.0 0.8 15 14.4 WNW 13 19 7 10 1011.1 1010.5 0.0
07/05:00pm 30.7 26.2 2.0 16 14.4 WNW 15 28 8 15 1011.5 1010.9 0.0
07/04:30pm 30.9 26.1 0.3 14 14.9 WNW 15 24 8 13 1011.9 1011.3 0.0
07/04:00pm 31.1 26.3 0.5 14 15.0 W 15 28 8 15 1012.2 1011.6 0.0
07/03:30pm 31.0 25.5 0.4 14 14.9 W 19 30 10 16 1012.6 1011.9 0.0
07/03:00pm 30.0 25.4 1.5 16 14.1 NW 15 22 8 12 1012.9 1012.2 0.0
07/02:30pm 29.6 24.3 2.0 17 13.7 WSW 19 28 10 15 1013.5 1012.8 0.0
07/02:00pm 29.2 23.8 2.5 18 13.3 SW 20 28 11 15 1013.9 1013.2 0.0
07/01:30pm 28.9 23.9 1.4 17 13.4 W 17 26 9 14 1014.2 1013.5 0.0
07/01:00pm 27.9 24.0 3.6 21 12.3 WNW 13 30 7 16 1014.5 1013.8 0.0
07/12:30pm 28.1 24.1 3.0 20 12.5 WNW 13 28 7 15 1015.0 1014.3 0.0
07/12:00pm 26.7 21.8 3.9 23 11.5 W 19 26 10 14 1015.3 1014.6 0.0
07/11:30am 26.0 22.3 4.5 25 10.9 WSW 13 24 7 13 1015.6 1015.0 0.0
07/11:00am 25.9 22.4 5.5 27 10.5 WSW 13 22 7 12 1015.9 1015.3 0.0
07/10:30am 25.4 22.7 7.5 32 9.5 WSW 11 20 6 11 1015.8 1015.2 0.0
07/10:00am 24.0 21.9 8.4 37 8.4 WSW 9 15 5 8 1015.8 1015.2 0.0
07/09:30am 22.3 20.4 9.1 43 7.1 W 9 13 5 7 1015.9 1015.3 0.0
07/09:00am 20.1 19.2 10.5 54 5.2 NW 6 11 3 6 1016.0 1015.4 0.0
07/08:30am 18.2 17.1 9.8 58 4.5 W 6 7 3 4 1015.7 1015.1 0.0

Other Formats:

Comma delimited format used in spreadsheet applications
http://www.bom.gov.au/fwo/IDN60801/IDN60801.95706.axf

JavaScript Object Notation format (JSON) in row-major order
http://www.bom.gov.au/fwo/IDN60801/IDN60801.95706.json